createdAt,value
2019-04-05T00:01:21.103Z,63.74
2019-04-05T00:03:50.459Z,63.87
2019-04-05T00:06:19.831Z,64.12
2019-04-05T00:08:49.233Z,64.38
2019-04-05T00:11:18.581Z,64.30
2019-04-05T00:13:47.937Z,64.72
2019-04-05T00:16:17.305Z,64.64
2019-04-05T00:18:46.709Z,65.03
2019-04-05T00:21:16.085Z,65.22
2019-04-05T00:23:45.423Z,65.06
2019-04-05T00:26:14.851Z,65.48
2019-04-05T00:28:44.191Z,65.62
2019-04-05T00:31:13.558Z,65.95
2019-04-05T00:33:42.896Z,65.59
2019-04-05T00:36:12.285Z,66.21
2019-04-05T00:38:41.638Z,66.37
2019-04-05T00:41:11.025Z,67.17
2019-04-05T00:43:40.709Z,67.14
2019-04-05T00:46:10.028Z,67.17
2019-04-05T00:48:39.396Z,67.55
2019-04-05T00:51:08.778Z,67.65
2019-04-05T00:53:38.219Z,67.91
2019-04-05T00:56:07.540Z,67.98
2019-04-05T00:58:36.909Z,68.23
2019-04-05T01:01:06.419Z,68.26
2019-04-05T01:03:35.755Z,68.46
2019-04-05T01:06:05.345Z,68.87
2019-04-05T01:08:34.803Z,68.83
2019-04-05T01:11:04.116Z,68.80
2019-04-05T01:13:33.905Z,68.96
2019-04-05T01:16:03.266Z,69.21
2019-04-05T01:18:32.647Z,69.18
2019-04-05T01:21:04.313Z,69.27
2019-04-05T01:23:35.342Z,69.17
2019-04-05T01:26:05.091Z,69.34
2019-04-05T01:28:34.932Z,69.60
2019-04-05T01:31:04.492Z,69.38
2019-04-05T01:33:33.892Z,69.35
2019-04-05T01:36:03.298Z,69.46
2019-04-05T01:38:32.654Z,69.48
2019-04-05T01:41:01.999Z,69.45
2019-04-05T01:43:31.627Z,69.53
2019-04-05T01:46:02.172Z,69.70
2019-04-05T01:48:31.563Z,69.74
2019-04-05T01:51:00.999Z,69.87
2019-04-05T01:53:30.383Z,69.94
2019-04-05T01:55:59.775Z,70.05
2019-04-05T01:58:29.189Z,70.18
2019-04-05T02:00:58.622Z,69.99
2019-04-05T02:03:28.093Z,70.26
2019-04-05T02:05:57.596Z,70.24
2019-04-05T02:08:27.423Z,70.52
2019-04-05T02:10:57.007Z,70.56
2019-04-05T02:13:26.363Z,70.95
2019-04-05T02:16:05.623Z,70.93
2019-04-05T02:18:26.852Z,70.81
2019-04-05T02:20:56.259Z,70.98
2019-04-05T02:23:25.585Z,70.83
2019-04-05T02:25:55.039Z,71.10
2019-04-05T02:28:25.556Z,70.98
2019-04-05T02:30:55.192Z,71.28
2019-04-05T02:33:24.611Z,71.67
2019-04-05T02:35:54.076Z,71.81
2019-04-05T02:38:23.504Z,71.96
2019-04-05T02:40:58.015Z,71.87
2019-04-05T02:43:28.392Z,71.68
2019-04-05T02:45:58.896Z,71.24
2019-04-05T02:48:30.227Z,71.11
2019-04-05T02:51:02.256Z,71.26
2019-04-05T02:53:34.236Z,71.42
2019-04-05T02:56:04.372Z,71.20
2019-04-05T02:58:34.983Z,71.41
2019-04-05T03:01:04.437Z,71.58
2019-04-05T03:03:34.462Z,71.83
2019-04-05T03:06:04.736Z,71.98
2019-04-05T03:08:34.489Z,72.35
2019-04-05T03:11:09.939Z,72.63
2019-04-05T03:13:45.253Z,72.72
2019-04-05T03:16:19.037Z,73.16
2019-04-05T03:18:55.493Z,73.39
2019-04-05T03:21:27.981Z,73.34
2019-04-05T03:24:00.859Z,73.40
2019-04-05T03:26:34.226Z,73.46
2019-04-05T03:29:06.554Z,73.35
2019-04-05T03:31:36.406Z,73.64
2019-04-05T03:34:06.945Z,74.04
2019-04-05T03:36:38.480Z,73.96
2019-04-05T03:39:09.381Z,73.96
2019-04-05T03:41:39.055Z,74.24
2019-04-05T03:44:11.293Z,74.06
2019-04-05T03:46:55.233Z,74.67
2019-04-05T03:49:12.403Z,74.99
2019-04-05T03:51:42.167Z,75.13
2019-04-05T03:54:11.975Z,75.41
2019-04-05T03:56:41.520Z,75.27
2019-04-05T03:59:11.126Z,75.28
2019-04-05T04:01:40.796Z,75.70
2019-04-05T04:04:10.551Z,76.07
2019-04-05T04:06:39.903Z,76.19
2019-04-05T04:09:09.476Z,76.48
2019-04-05T04:11:38.986Z,76.34
2019-04-05T04:14:09.042Z,76.34
2019-04-05T04:16:39.734Z,76.21
2019-04-05T04:19:09.225Z,76.23
2019-04-05T04:21:52.220Z,76.16
2019-04-05T04:24:22.510Z,75.74
2019-04-05T04:26:52.863Z,76.17
2019-04-05T04:29:22.595Z,76.30
2019-04-05T04:31:52.065Z,76.45
2019-04-05T04:34:21.845Z,76.12
2019-04-05T04:36:52.340Z,75.82
2019-04-05T04:39:22.003Z,75.57
2019-04-05T04:41:51.965Z,75.96
2019-04-05T04:44:21.618Z,76.21
2019-04-05T04:46:51.428Z,76.61
2019-04-05T04:49:21.092Z,76.60
2019-04-05T04:51:50.991Z,76.25
2019-04-05T04:54:21.484Z,76.47
2019-04-05T04:56:51.394Z,76.58
2019-04-05T04:59:21.200Z,76.53
2019-04-05T05:01:50.594Z,76.49
2019-04-05T05:04:20.583Z,75.67
2019-04-05T05:06:50.410Z,75.42
2019-04-05T05:09:20.824Z,75.76
2019-04-05T05:11:50.334Z,75.28
2019-04-05T05:14:22.924Z,74.72
2019-04-05T05:16:52.298Z,74.58
2019-04-05T05:19:21.859Z,74.46
2019-04-05T05:21:51.220Z,74.12
2019-04-05T05:24:21.650Z,74.26
2019-04-05T05:26:51.360Z,74.19
2019-04-05T05:29:20.849Z,73.75
2019-04-05T05:31:50.413Z,73.82
2019-04-05T05:34:20.142Z,73.55
2019-04-05T05:36:49.908Z,73.68
2019-04-05T05:39:19.820Z,73.16
2019-04-05T05:41:49.333Z,72.89
2019-04-05T05:44:18.686Z,72.59
2019-04-05T05:46:48.023Z,72.95
2019-04-05T05:49:17.389Z,72.80
2019-04-05T05:51:47.232Z,72.90
2019-04-05T05:54:18.401Z,72.82
2019-04-05T05:56:47.767Z,72.37
2019-04-05T05:59:17.236Z,72.55
2019-04-05T08:33:41.902Z,54.30
2019-04-05T08:36:11.275Z,54.83
2019-04-05T08:38:40.670Z,54.19
2019-04-05T08:41:10.068Z,53.54
2019-04-05T08:43:39.582Z,53.84
2019-04-05T08:46:09.013Z,53.65
2019-04-05T08:48:38.459Z,53.70
2019-04-05T08:51:07.962Z,53.27
2019-04-05T08:53:37.363Z,53.63
2019-04-05T08:56:06.743Z,53.81
2019-04-05T08:58:36.152Z,53.49
2019-04-05T09:01:05.609Z,53.95
2019-04-05T09:03:34.976Z,53.46
2019-04-05T09:06:04.710Z,53.15
2019-04-05T09:08:34.107Z,53.29
2019-04-05T09:11:03.501Z,52.42
2019-04-05T09:13:32.903Z,53.40
2019-04-05T09:16:02.331Z,52.78
2019-04-05T09:18:31.827Z,52.27
2019-04-05T09:21:01.196Z,52.27
2019-04-05T09:23:30.576Z,51.95
2019-04-05T09:25:59.915Z,51.39
2019-04-05T09:28:29.323Z,51.39
2019-04-05T09:30:58.703Z,50.92
2019-04-05T09:33:28.083Z,51.27
2019-04-05T09:35:57.460Z,50.22
2019-04-05T09:38:26.851Z,49.55
2019-04-05T09:40:56.246Z,49.66
2019-04-05T09:43:25.792Z,49.27
2019-04-05T09:45:55.183Z,49.54
2019-04-05T09:48:24.599Z,49.21
2019-04-05T09:50:54.016Z,48.92
2019-04-05T09:53:23.391Z,49.37
2019-04-05T09:55:52.772Z,49.17
2019-04-05T09:58:22.206Z,49.20
2019-04-05T10:00:51.550Z,49.00
2019-04-05T10:03:20.919Z,49.02
2019-04-05T10:05:50.311Z,48.69
2019-04-05T10:08:19.647Z,48.58
2019-04-05T10:10:48.981Z,48.28
2019-04-05T10:13:18.370Z,49.25
2019-04-05T10:15:47.765Z,49.57
2019-04-05T10:18:17.147Z,49.87
2019-04-05T10:20:46.582Z,49.26
2019-04-05T10:23:15.981Z,49.02
2019-04-05T10:25:45.435Z,49.18
2019-04-05T10:28:14.844Z,49.44
2019-04-05T10:30:44.259Z,49.36
2019-04-05T10:33:13.743Z,48.64
2019-04-05T10:35:43.121Z,48.69
2019-04-05T10:38:12.499Z,48.56
2019-04-05T10:40:41.893Z,48.56
2019-04-05T10:43:11.267Z,48.13
2019-04-05T10:45:40.647Z,48.62
2019-04-05T10:48:10.037Z,47.68
2019-04-05T10:50:39.493Z,47.78
2019-04-05T10:53:08.843Z,48.10
2019-04-05T10:55:38.240Z,49.12
2019-04-05T10:58:07.651Z,49.22
2019-04-05T11:00:37.013Z,49.54
2019-04-05T11:03:06.421Z,49.07
2019-04-05T11:05:35.788Z,49.03
2019-04-05T11:08:05.171Z,48.66
2019-04-05T11:10:34.540Z,47.90
2019-04-05T11:13:03.905Z,47.90
2019-04-05T11:15:33.312Z,47.94
2019-04-05T11:18:04.553Z,48.04
2019-04-05T11:20:33.939Z,48.04
2019-04-05T11:23:03.566Z,48.03
2019-04-05T11:25:33.026Z,48.03
2019-04-05T11:28:02.456Z,48.33
2019-04-05T11:30:42.526Z,47.83
2019-04-05T11:33:12.147Z,48.03
2019-04-05T11:35:41.646Z,48.52
2019-04-05T11:38:11.821Z,48.52
2019-04-05T11:40:41.725Z,48.12
2019-04-05T11:43:11.439Z,47.02
2019-04-05T11:45:41.031Z,47.02
2019-04-05T11:48:10.430Z,48.14
2019-04-05T11:50:39.851Z,47.53
2019-04-05T11:53:09.298Z,47.49
2019-04-05T11:55:38.675Z,46.63
2019-04-05T11:58:08.083Z,46.88
2019-04-05T12:01:02.424Z,46.31
2019-04-05T12:03:31.803Z,45.93
2019-04-05T12:06:01.187Z,45.49
2019-04-05T12:08:30.576Z,44.61
2019-04-05T12:11:00.029Z,44.61
2019-04-05T12:13:29.404Z,44.78
2019-04-05T12:15:58.808Z,44.95
2019-04-05T12:18:28.237Z,45.54
2019-04-05T12:21:00.409Z,45.79
2019-04-05T12:23:32.607Z,45.89
2019-04-05T12:26:03.779Z,46.19
2019-04-05T12:28:30.973Z,46.21
2019-04-05T12:31:00.520Z,45.66
2019-04-05T12:33:29.960Z,45.75
2019-04-05T12:35:59.374Z,45.70
2019-04-05T12:38:33.048Z,45.70
2019-04-05T12:41:04.776Z,46.86
2019-04-05T12:43:34.572Z,46.35
2019-04-05T12:46:05.272Z,46.35
2019-04-05T12:48:34.721Z,46.32
2019-04-05T12:51:05.668Z,46.08
2019-04-05T12:53:35.261Z,45.12
2019-04-05T12:56:04.716Z,44.54
2019-04-05T12:58:34.080Z,44.80
2019-04-05T13:01:03.517Z,43.76
2019-04-05T13:03:32.914Z,42.85
2019-04-05T13:06:02.340Z,42.59
2019-04-05T13:08:31.767Z,41.64
2019-04-05T13:11:01.160Z,41.54
2019-04-05T13:13:30.697Z,40.13
2019-04-05T13:16:00.009Z,39.60
2019-04-05T13:18:31.553Z,39.00
2019-04-05T13:21:01.126Z,38.37
2019-04-05T13:23:31.648Z,38.46
2019-04-05T13:26:01.060Z,38.87
2019-04-05T13:28:30.468Z,39.79
2019-04-05T13:30:59.946Z,39.63
2019-04-05T13:33:29.325Z,39.79
2019-04-05T13:35:58.727Z,39.96
2019-04-05T13:38:29.794Z,39.95
2019-04-05T13:41:01.279Z,40.44
2019-04-05T13:43:31.965Z,40.28
2019-04-05T13:46:01.613Z,40.49
2019-04-05T13:48:30.982Z,40.89
2019-04-05T13:51:00.319Z,41.12
2019-04-05T13:53:29.691Z,41.27
2019-04-05T13:55:59.161Z,40.94
2019-04-05T13:58:28.507Z,41.42
2019-04-05T14:00:57.845Z,40.96
2019-04-05T14:03:27.273Z,41.10
2019-04-05T14:05:56.640Z,41.51
2019-04-05T14:08:26.237Z,41.23
2019-04-05T14:10:55.570Z,41.16
2019-04-05T14:13:24.939Z,40.85
2019-04-05T14:15:54.357Z,40.63
2019-04-05T14:18:23.735Z,40.98
2019-04-05T14:20:53.154Z,40.55
2019-04-05T14:23:23.969Z,40.39
2019-04-05T14:25:53.534Z,40.23
2019-04-05T14:28:22.919Z,39.92
2019-04-05T14:30:52.374Z,40.76
2019-04-05T14:33:24.401Z,40.50
2019-04-05T14:35:54.790Z,40.56
2019-04-05T14:38:23.923Z,40.28
2019-04-05T14:40:53.260Z,40.20
2019-04-05T14:43:22.593Z,40.22
2019-04-05T14:45:51.983Z,39.94
2019-04-05T14:48:21.345Z,39.72
2019-04-05T14:50:50.776Z,39.23
2019-04-05T14:53:20.160Z,38.46
2019-04-05T14:55:49.561Z,38.38
2019-04-05T14:58:19.353Z,38.30
2019-04-05T15:00:48.954Z,38.21
2019-04-05T15:03:18.484Z,38.57
2019-04-05T15:05:47.855Z,38.63
2019-04-05T15:08:20.316Z,38.63
2019-04-05T15:10:51.228Z,38.62
2019-04-05T15:13:19.672Z,38.83
2019-04-05T15:15:49.082Z,39.08
2019-04-05T15:18:19.684Z,39.68
2019-04-05T15:20:52.264Z,39.47
2019-04-05T15:23:21.665Z,39.81
2019-04-05T15:25:51.022Z,39.80
2019-04-05T15:28:20.437Z,40.04
2019-04-05T15:30:49.847Z,39.93
2019-04-05T15:33:19.322Z,39.84
2019-04-05T15:35:48.757Z,40.15
2019-04-05T15:38:18.125Z,40.65
2019-04-05T15:40:47.521Z,40.97
2019-04-05T15:43:16.853Z,41.30
2019-04-05T15:45:46.239Z,40.93
2019-04-05T15:48:15.749Z,41.46
2019-04-05T15:50:45.135Z,41.69
2019-04-05T15:53:14.487Z,41.58
2019-04-05T15:55:43.873Z,41.73
2019-04-05T15:58:13.317Z,41.61
2019-04-05T16:00:45.975Z,42.12
2019-04-05T16:03:16.003Z,41.61
2019-04-05T16:05:45.973Z,41.49
2019-04-05T16:08:18.098Z,41.78
2019-04-05T16:10:47.509Z,41.34
2019-04-05T16:13:16.887Z,41.43
2019-04-05T16:15:46.247Z,41.46
2019-04-05T16:18:15.666Z,41.63
2019-04-05T16:20:45.066Z,41.76
2019-04-05T16:23:14.481Z,42.62
2019-04-05T16:25:43.834Z,42.87
2019-04-05T16:28:13.193Z,42.87
2019-04-05T16:30:42.612Z,43.86
2019-04-05T16:33:11.977Z,44.27
2019-04-05T16:35:41.394Z,44.84
2019-04-05T16:38:10.849Z,45.16
2019-04-05T16:40:40.234Z,45.82
2019-04-05T16:43:10.052Z,45.94
2019-04-05T16:45:39.521Z,45.94
2019-04-05T16:48:08.888Z,46.00
2019-04-05T16:50:38.284Z,45.76
2019-04-05T16:53:07.645Z,46.49
2019-04-05T16:55:37.051Z,47.49
2019-04-05T16:58:06.551Z,47.98
2019-04-05T17:00:35.986Z,48.69
2019-04-05T17:03:05.425Z,48.84
2019-04-05T17:05:34.870Z,49.33
2019-04-05T17:08:04.524Z,49.84
2019-04-05T17:10:33.854Z,49.97
2019-04-05T17:13:03.324Z,50.40
2019-04-05T17:15:32.732Z,50.86
2019-04-05T17:18:02.159Z,51.33
2019-04-05T17:20:31.587Z,51.71
2019-04-05T17:23:02.781Z,52.17
2019-04-05T17:25:32.263Z,52.93
2019-04-05T17:28:01.725Z,53.04
2019-04-05T17:30:31.382Z,53.20
2019-04-05T17:33:00.776Z,53.44
2019-04-05T17:35:30.186Z,53.28
2019-04-05T17:37:59.701Z,53.38
2019-04-05T17:40:29.069Z,53.54
2019-04-05T17:42:58.558Z,53.63
2019-04-05T17:45:27.995Z,53.78
2019-04-05T17:47:57.372Z,54.00
2019-04-05T17:50:34.526Z,53.96
2019-04-05T17:53:12.717Z,54.04
2019-04-05T17:55:36.128Z,54.39
2019-04-05T17:58:07.449Z,54.38
2019-04-05T18:00:37.382Z,54.02
2019-04-05T18:03:06.791Z,54.31
2019-04-05T18:05:36.212Z,54.04
2019-04-05T18:08:05.623Z,53.98
2019-04-05T18:10:35.404Z,54.10
2019-04-05T18:13:04.852Z,54.04
2019-04-05T18:15:34.308Z,53.98
2019-04-05T18:18:09.394Z,53.68
2019-04-05T18:20:38.823Z,53.58
2019-04-05T18:23:08.316Z,53.97
2019-04-05T18:25:37.781Z,54.04
2019-04-05T18:28:07.364Z,54.48
2019-04-05T18:30:36.829Z,54.55
2019-04-05T18:33:06.252Z,54.10
2019-04-05T18:35:35.834Z,53.90
2019-04-05T18:38:05.202Z,54.23
2019-04-05T18:40:40.151Z,54.28
2019-04-05T18:43:05.823Z,54.09
2019-04-05T18:45:35.228Z,54.42
2019-04-05T18:48:04.776Z,54.21
2019-04-05T18:50:34.187Z,54.31
2019-04-05T18:53:03.569Z,54.07
2019-04-05T18:55:32.964Z,53.80
2019-04-05T18:58:02.408Z,54.23
2019-04-05T19:00:31.827Z,53.85
2019-04-05T19:03:01.226Z,54.25
2019-04-05T19:05:30.647Z,53.74
2019-04-05T19:08:00.039Z,53.81
2019-04-05T19:10:36.878Z,53.91
2019-04-05T19:13:00.562Z,54.15
2019-04-05T19:15:29.973Z,54.24
2019-04-05T19:17:59.383Z,54.25
2019-04-05T19:20:28.827Z,54.32
2019-04-05T19:22:58.288Z,54.34
2019-04-05T19:25:27.722Z,54.23
2019-04-05T19:27:57.750Z,54.33
2019-04-05T19:50:39.440Z,54.88
2019-04-05T19:53:08.809Z,55.07
2019-04-05T19:55:38.234Z,55.18
2019-04-05T19:58:07.703Z,55.35
2019-04-05T20:00:39.972Z,55.26
2019-04-05T20:03:09.283Z,55.65
2019-04-05T20:05:38.682Z,55.62
2019-04-05T20:08:08.066Z,55.64
2019-04-05T20:10:37.497Z,55.72
2019-04-05T20:13:06.843Z,55.73
2019-04-05T20:15:36.180Z,55.91
2019-04-05T20:18:05.792Z,56.31
2019-04-05T20:20:35.191Z,56.29
2019-04-05T20:23:04.630Z,56.38
2019-04-05T20:25:34.073Z,56.51
2019-04-05T20:28:03.456Z,56.94
2019-04-05T20:30:32.883Z,56.63
2019-04-05T20:33:02.464Z,56.67
2019-04-05T20:35:31.832Z,56.75
2019-04-05T20:38:01.383Z,56.85
2019-04-05T20:40:33.679Z,57.31
2019-04-05T20:43:03.035Z,57.45
2019-04-05T20:45:32.447Z,57.24
2019-04-05T20:48:01.815Z,57.13
2019-04-05T20:50:31.167Z,57.27
2019-04-05T20:53:01.539Z,57.18
2019-04-05T20:55:30.890Z,57.40
2019-04-05T20:58:00.322Z,57.33
2019-04-05T21:00:29.707Z,56.63
2019-04-05T21:02:59.131Z,56.62
2019-04-05T21:05:28.488Z,56.53
2019-04-05T21:07:57.883Z,56.08
2019-04-05T21:10:27.701Z,56.42
2019-04-05T21:12:57.293Z,56.46
2019-04-05T21:15:26.776Z,56.46
2019-04-05T21:17:56.133Z,56.42
2019-04-05T21:20:25.588Z,56.78
2019-04-05T21:22:55.021Z,56.54
2019-04-05T21:25:24.490Z,56.58
2019-04-05T21:27:53.990Z,56.61
2019-04-05T21:30:23.396Z,56.61
2019-04-05T21:32:52.791Z,56.79
2019-04-05T21:35:22.160Z,56.65
2019-04-05T21:37:51.503Z,56.63
2019-04-05T21:40:20.888Z,56.51
2019-04-05T21:42:50.239Z,57.12
2019-04-05T21:45:19.637Z,56.86
2019-04-05T21:47:48.995Z,56.80
2019-04-05T21:50:18.349Z,57.03
2019-04-05T21:52:47.817Z,56.93
2019-04-05T21:55:17.241Z,57.33
2019-04-05T21:57:46.694Z,57.48
2019-04-05T22:00:25.121Z,57.46
2019-04-05T22:02:54.527Z,57.79
2019-04-05T22:05:23.937Z,57.95
2019-04-05T22:07:53.358Z,57.95
2019-04-05T22:10:22.766Z,58.65
2019-04-05T22:12:52.132Z,58.35
2019-04-05T22:15:21.505Z,58.58
2019-04-05T22:17:50.949Z,58.70
2019-04-05T22:20:20.338Z,58.44
2019-04-05T22:22:49.743Z,58.79
2019-04-05T22:25:19.732Z,58.45
2019-04-05T22:27:49.106Z,58.83
2019-04-05T22:30:18.652Z,58.95
2019-04-05T22:32:48.072Z,59.42
2019-04-05T22:35:17.463Z,59.38
2019-04-05T22:37:46.862Z,59.16
2019-04-05T22:40:18.621Z,59.22
2019-04-05T22:42:48.025Z,59.62
2019-04-05T22:45:18.548Z,59.31
2019-04-05T22:47:47.969Z,59.47
2019-04-05T22:50:17.712Z,59.67
2019-04-05T22:52:47.129Z,59.82
2019-04-05T22:55:18.964Z,60.10
2019-04-05T22:57:48.318Z,60.10
2019-04-05T23:00:18.012Z,60.21
2019-04-05T23:02:47.382Z,60.53
2019-04-05T23:05:16.791Z,60.52
2019-04-05T23:07:46.192Z,60.84
2019-04-05T23:10:15.772Z,61.28
2019-04-05T23:12:45.202Z,61.31
2019-04-05T23:15:14.691Z,61.40
2019-04-05T23:17:44.052Z,61.24
2019-04-05T23:20:13.551Z,61.47
2019-04-05T23:22:42.950Z,61.85
2019-04-05T23:25:21.437Z,62.18
2019-04-05T23:27:43.457Z,62.75
2019-04-05T23:30:13.641Z,62.83
2019-04-05T23:32:43.026Z,63.06
2019-04-05T23:35:12.417Z,63.43
2019-04-05T23:37:41.891Z,63.63
2019-04-05T23:40:11.446Z,63.82
2019-04-05T23:42:40.859Z,64.08
2019-04-05T23:45:10.870Z,64.19
2019-04-05T23:47:40.236Z,64.25
2019-04-05T23:50:09.821Z,64.66
2019-04-05T23:52:39.190Z,64.67
2019-04-05T23:55:08.709Z,64.52
2019-04-05T23:57:38.071Z,64.88
